• Join FlightAware (Why Join?)
  • Login
  • US Flag 
09:16AM EDT


 

Airport Tracker/Info


-or-


 

Live Flight TrackerFlight Track Log ✈ N527MC ✈ 24-Apr-2013 ✈ I19 - KHAO

Flight Track Log - Related Links

Times and Time Zones

All times are in EDT time to prevent confusion due to time zone crossing. See the N527MC flight status page for this flight to view local times or setup timezone preferences in your user account.

Time Position Orientation Groundspeed Altitude Reporting Facility
EDT Latitude Longitude Course Direction KTS MPH feet Rate Location/Type
07:09PM 39.7958 -83.7256 235° Southwest 124 143 3,100  Level Indianapolis Center
07:10PM 39.7803 -83.7544 235° Southwest 123 142 3,100 -120 Level Indianapolis Center
07:10PM 39.7739 -83.7689 240° Southwest 124 143 3,000  Descending Indianapolis Center
07:11PM 39.7611 -83.7922 235° Southwest 124 143 3,100  Climbing Indianapolis Center
07:12PM 39.7428 -83.8303 238° Southwest 124 143 3,100  Level Indianapolis Center
07:13PM 39.7253 -83.8694 240° Southwest 124 143 3,100  Level Indianapolis Center
07:14PM 39.7028 -83.9053 231° Southwest 125 144 3,100  Level Indianapolis Center
07:14PM 39.6933 -83.9186 227° Southwest 125 144 3,100 -120 Level Indianapolis Center
07:15PM 39.6769 -83.9392 224° Southwest 128 147 3,000  Descending Indianapolis Center
07:16PM 39.6533 -83.9725 227° Southwest 127 146 3,100  Climbing Indianapolis Center
07:17PM 39.6256 -84.0139 229° Southwest 127 146 3,000 -120 Descending Indianapolis Center
07:17PM 39.6181 -84.0256 230° Southwest 128 147 3,000  Level Indianapolis Center
07:18PM 39.6022 -84.0475 227° Southwest 127 146 3,000  Level Indianapolis Center
07:19PM 39.5775 -84.0811 226° Southwest 126 145 3,100  Climbing Indianapolis Center
07:20PM 39.5533 -84.1144 227° Southwest 127 146 3,100 -120 Level Indianapolis Center
07:20PM 39.5453 -84.1244 224° Southwest 128 147 3,000  Descending Indianapolis Center
07:21PM 39.5286 -84.1489 229° Southwest 128 147 3,100 60 Climbing Indianapolis Center
07:22PM 39.5047 -84.1828 228° Southwest 127 146 3,200 -60 Climbing Indianapolis Center
07:23PM 39.4789 -84.2164 225° Southwest 129 148 3,000 -60 Descending Indianapolis Center
07:24PM 39.4386 -84.2183 182° South 135 155 3,100  Climbing Indianapolis Center
07:25PM 39.3992 -84.2244 187° South 140 161 3,100  Level Indianapolis Center
07:26PM 39.3550 -84.2319 187° South 142 163 3,100  Level Indianapolis Center
07:27PM 39.3144 -84.2433 192° South 142 163 3,100  Level Indianapolis Center
07:28PM 39.2994 -84.2814 243° Southwest 137 158 3,100  Level Indianapolis Center
07:29PM 39.2892 -84.3236 253° West 135 155 3,100  Level Indianapolis Center